Time;durP1;ratioP1;P1;durP2;ratioP2;P2;SDS_P1;SDS_P2;PMS_P1;PMS_P2;Temp;Humidity;BMP_temperature;BMP_pressure;BME280_temperature;BME280_humidity;BME280_pressure;Samples;Min_cycle;Max_cycle;Signal;HPM_P1;HPM_P2
2022/01/08 00:01:54;;;;;;;3.63;1.90;;;2.80;92.90;;;;;;5042797;28;20499;-79
2022/01/08 00:04:20;;;;;;;2.17;1.95;;;2.80;92.90;;;;;;5038943;28;20025;-79
2022/01/08 00:06:45;;;;;;;2.13;1.52;;;2.80;92.90;;;;;;5017717;28;20515;-81
2022/01/08 00:09:11;;;;;;;6.65;2.90;;;2.80;92.90;;;;;;5046123;28;20029;-79
2022/01/08 00:11:40;;;;;;;7.22;3.40;;;2.80;92.90;;;;;;5034498;28;20036;-79
2022/01/08 00:14:06;;;;;;;5.82;3.53;;;2.80;92.90;;;;;;5025526;28;20572;-80
2022/01/08 00:16:33;;;;;;;2.70;1.88;;;2.80;92.80;;;;;;5041115;28;20144;-79
2022/01/08 00:18:59;;;;;;;6.00;2.22;;;2.80;92.80;;;;;;5026997;28;20632;-79
2022/01/08 00:21:24;;;;;;;2.15;1.83;;;2.80;92.80;;;;;;5045581;28;20143;-80
2022/01/08 00:23:50;;;;;;;3.53;1.95;;;2.80;92.90;;;;;;5043583;28;20071;-79
2022/01/08 00:26:15;;;;;;;4.22;2.45;;;2.80;92.90;;;;;;5043218;28;20029;-80
2022/01/08 00:28:41;;;;;;;3.28;2.10;;;2.80;92.90;;;;;;5042418;28;20668;-79
2022/01/08 00:31:10;;;;;;;3.25;1.95;;;2.80;92.90;;;;;;5040731;28;20547;-79
2022/01/08 00:33:36;;;;;;;1.88;1.67;;;2.80;92.90;;;;;;5042907;28;20037;-79
2022/01/08 00:36:02;;;;;;;2.33;2.13;;;2.80;92.90;;;;;;5025349;28;20067;-79
2022/01/08 00:38:28;;;;;;;3.50;2.22;;;2.80;92.90;;;;;;5048409;28;20124;-80
2022/01/08 00:40:53;;;;;;;3.97;2.85;;;2.80;92.90;;;;;;5040434;28;20119;-80
2022/01/08 00:43:19;;;;;;;2.30;1.98;;;2.80;92.90;;;;;;5047637;28;20086;-80
2022/01/08 00:45:45;;;;;;;3.17;2.45;;;2.80;92.90;;;;;;5047900;28;20588;-80
2022/01/08 00:48:10;;;;;;;5.05;2.30;;;2.80;92.90;;;;;;5026193;28;20032;-80
2022/01/08 00:50:36;;;;;;;1.88;1.60;;;2.80;92.90;;;;;;5038779;28;20661;-81
2022/01/08 00:53:01;;;;;;;1.75;1.50;;;2.80;92.90;;;;;;5039414;28;20045;-81
2022/01/08 00:55:27;;;;;;;2.95;1.55;;;2.80;92.90;;;;;;5038655;28;20040;-80
2022/01/08 00:57:52;;;;;;;2.13;1.70;;;2.80;92.90;;;;;;5033536;28;20032;-81
2022/01/08 01:00:18;;;;;;;6.22;1.75;;;2.80;92.90;;;;;;5036075;28;20047;-81
2022/01/08 01:02:43;;;;;;;2.70;1.60;;;2.80;92.90;;;;;;5044156;28;20048;-81
2022/01/08 01:05:09;;;;;;;1.50;1.30;;;2.80;92.90;;;;;;5035898;28;20447;-81
2022/01/08 01:07:35;;;;;;;1.48;1.38;;;2.80;92.90;;;;;;5026789;28;20048;-80
2022/01/08 01:10:00;;;;;;;2.42;1.60;;;2.90;92.90;;;;;;5040268;28;20414;-80
2022/01/08 01:12:26;;;;;;;2.63;1.80;;;2.80;92.90;;;;;;5022537;28;20044;-81
2022/01/08 01:14:52;;;;;;;4.72;2.20;;;2.80;92.90;;;;;;5042590;28;20040;-81
2022/01/08 01:17:17;;;;;;;1.85;1.50;;;2.80;92.90;;;;;;5005720;28;20037;-81
2022/01/08 01:19:43;;;;;;;2.80;1.80;;;2.80;92.90;;;;;;5042429;28;20025;-80
2022/01/08 01:22:09;;;;;;;2.60;1.45;;;2.80;92.90;;;;;;5042847;28;20064;-80
2022/01/08 01:24:36;;;;;;;2.78;1.70;;;2.80;92.90;;;;;;5027880;28;20395;-81
2022/01/08 01:48:21;;;;;;;2.67;1.63;;;2.90;92.90;;;;;;5017609;28;20044;-81
2022/01/08 01:50:47;;;;;;;1.90;1.63;;;2.80;92.90;;;;;;5030518;28;20516;-81
2022/01/08 01:53:13;;;;;;;3.55;1.65;;;2.90;93.00;;;;;;5053081;28;20054;-80
2022/01/08 01:55:39;;;;;;;2.60;1.42;;;2.80;92.90;;;;;;5006830;28;20652;-81
2022/01/08 01:58:06;;;;;;;3.47;1.73;;;2.80;93.00;;;;;;5039946;28;20041;-81
2022/01/08 02:00:32;;;;;;;1.85;1.52;;;2.80;93.00;;;;;;5044727;28;20072;-81
2022/01/08 02:02:59;;;;;;;2.63;1.42;;;2.80;93.00;;;;;;5025146;28;20043;-80
2022/01/08 02:05:24;;;;;;;2.08;1.80;;;2.80;92.90;;;;;;5041234;28;20037;-80
2022/01/08 02:07:50;;;;;;;3.15;1.45;;;2.80;93.00;;;;;;5013360;28;20071;-81
2022/01/08 02:10:15;;;;;;;2.63;1.42;;;2.80;92.90;;;;;;5053465;28;20053;-80
2022/01/08 02:12:41;;;;;;;5.03;1.90;;;2.70;92.90;;;;;;5042091;28;20036;-80
2022/01/08 02:15:07;;;;;;;3.10;1.90;;;2.70;92.90;;;;;;5043078;28;20037;-79
2022/01/08 02:17:32;;;;;;;2.00;1.52;;;2.70;93.30;;;;;;5021261;28;20041;-80
2022/01/08 02:19:58;;;;;;;2.28;1.70;;;2.70;92.90;;;;;;5039318;28;20106;-80
2022/01/08 02:22:23;;;;;;;1.60;1.33;;;2.70;92.90;;;;;;5043202;28;20036;-80
2022/01/08 02:24:49;;;;;;;3.78;2.00;;;2.60;92.90;;;;;;5044577;28;20457;-80
2022/01/08 02:27:15;;;;;;;2.90;2.03;;;2.60;92.90;;;;;;5042628;28;20040;-81
2022/01/08 02:29:41;;;;;;;2.38;2.00;;;2.60;92.90;;;;;;5046206;28;20037;-80
2022/01/08 02:32:08;;;;;;;3.28;2.28;;;2.60;92.90;;;;;;5045352;28;20091;-81
2022/01/08 02:34:39;;;;;;;3.90;1.85;;;2.60;92.90;;;;;;5053317;28;20037;-80
2022/01/08 02:37:04;;;;;;;2.50;2.00;;;2.50;92.90;;;;;;5005799;28;20041;-80
2022/01/08 02:39:34;;;;;;;1.95;1.70;;;2.50;92.90;;;;;;5004448;28;20041;-82
2022/01/08 02:41:59;;;;;;;2.65;1.80;;;2.50;92.90;;;;;;5037176;28;20075;-82
2022/01/08 02:44:26;;;;;;;1.83;1.58;;;2.50;92.90;;;;;;5042657;28;20033;-81
2022/01/08 02:46:51;;;;;;;1.80;1.50;;;2.50;92.90;;;;;;5040157;28;20037;-81
2022/01/08 02:49:17;;;;;;;2.40;1.73;;;2.50;92.90;;;;;;5042630;28;20630;-81
2022/01/08 02:51:42;;;;;;;2.00;1.60;;;2.50;92.90;;;;;;5036277;28;20025;-80
2022/01/08 02:54:09;;;;;;;1.80;1.58;;;2.50;93.00;;;;;;5052300;28;20036;-80
2022/01/08 02:56:42;;;;;;;2.35;1.85;;;2.50;93.00;;;;;;5037121;28;20116;-80
2022/01/08 02:59:08;;;;;;;1.67;1.58;;;2.50;93.00;;;;;;5036888;28;20037;-79
2022/01/08 03:01:34;;;;;;;1.63;1.50;;;2.40;92.90;;;;;;5014877;28;20032;-79
2022/01/08 03:03:59;;;;;;;2.42;2.00;;;2.50;93.00;;;;;;5027715;28;20045;-80
2022/01/08 03:06:25;;;;;;;2.35;1.52;;;2.50;93.00;;;;;;5038469;28;20036;-80
2022/01/08 03:08:50;;;;;;;1.73;1.50;;;2.40;93.00;;;;;;5035968;28;20124;-82
2022/01/08 03:11:16;;;;;;;3.67;1.88;;;2.40;92.90;;;;;;5011035;28;20079;-81
2022/01/08 03:13:42;;;;;;;2.22;1.90;;;2.40;93.00;;;;;;5043823;28;20480;-81
2022/01/08 03:16:07;;;;;;;1.90;1.70;;;2.40;93.00;;;;;;5037146;28;20132;-80
2022/01/08 03:18:35;;;;;;;2.03;1.90;;;2.40;93.00;;;;;;5033599;28;20036;-80
2022/01/08 03:21:02;;;;;;;3.05;2.35;;;2.40;93.00;;;;;;5047830;28;20025;-80
2022/01/08 03:23:39;;;;;;;2.70;2.03;;;2.40;93.00;;;;;;5023527;28;20082;-81
2022/01/08 03:26:04;;;;;;;2.85;2.15;;;2.40;93.00;;;;;;5023826;28;20090;-80
2022/01/08 03:28:30;;;;;;;3.72;1.77;;;2.40;93.00;;;;;;5022827;28;20025;-81
2022/01/08 03:30:55;;;;;;;2.45;1.75;;;2.40;93.00;;;;;;5035800;28;20049;-82
2022/01/08 03:33:21;;;;;;;1.67;1.50;;;2.30;93.00;;;;;;5025010;28;20032;-82
2022/01/08 03:35:46;;;;;;;2.95;1.83;;;2.30;93.00;;;;;;5039983;28;20025;-81
2022/01/08 03:38:12;;;;;;;4.47;1.80;;;2.30;93.40;;;;;;5039370;28;20032;-81
2022/01/08 03:40:38;;;;;;;1.70;1.60;;;2.30;93.00;;;;;;5038423;28;20039;-81
2022/01/08 03:43:03;;;;;;;1.92;1.65;;;2.30;93.00;;;;;;5042222;28;20045;-81
2022/01/08 03:45:29;;;;;;;1.75;1.50;;;2.30;93.00;;;;;;5026373;28;20075;-82
2022/01/08 03:48:16;;;;;;;4.05;1.65;;;2.30;93.00;;;;;;5044537;28;20045;-82
2022/01/08 03:50:40;;;;;;;2.30;1.67;;;2.30;93.00;;;;;;5027792;28;20175;-83
2022/01/08 03:53:05;;;;;;;2.33;1.50;;;2.30;93.00;;;;;;5018064;28;20040;-82
2022/01/08 03:55:31;;;;;;;1.67;1.58;;;2.30;93.00;;;;;;5045364;28;20025;-81
2022/01/08 03:57:56;;;;;;;2.40;1.70;;;2.30;93.40;;;;;;5035930;28;20542;-81
2022/01/08 04:00:22;;;;;;;1.75;1.63;;;2.30;93.10;;;;;;5031138;28;20047;-81
2022/01/08 04:02:47;;;;;;;1.50;1.38;;;2.30;93.00;;;;;;5036374;28;20037;-81
2022/01/08 04:05:13;;;;;;;1.80;1.45;;;2.30;93.10;;;;;;5035969;28;20029;-83
2022/01/08 04:07:38;;;;;;;1.95;1.70;;;2.30;93.10;;;;;;5040918;28;20423;-81
2022/01/08 04:10:04;;;;;;;1.50;1.40;;;2.30;93.10;;;;;;5036134;28;20514;-81
2022/01/08 04:12:37;;;;;;;1.90;1.10;;;2.30;93.10;;;;;;5039881;28;20507;-81
2022/01/08 04:15:19;;;;;;;1.60;1.30;;;2.30;93.10;;;;;;5035173;28;20037;-83
2022/01/08 04:17:44;;;;;;;1.65;1.20;;;2.30;93.10;;;;;;5019455;28;20029;-83
2022/01/08 04:20:10;;;;;;;1.58;1.23;;;2.30;93.10;;;;;;5035347;28;20502;-82
2022/01/08 04:22:35;;;;;;;2.30;1.30;;;2.30;93.10;;;;;;5038526;28;20094;-81
2022/01/08 04:25:01;;;;;;;1.75;1.35;;;2.30;93.10;;;;;;5035037;28;20072;-81
2022/01/08 04:27:26;;;;;;;1.75;1.30;;;2.30;93.10;;;;;;5052493;28;20040;-82
2022/01/08 04:29:52;;;;;;;1.45;1.10;;;2.30;93.10;;;;;;5037331;28;20506;-80
2022/01/08 04:32:17;;;;;;;2.05;1.15;;;2.30;93.10;;;;;;5027704;28;20559;-82
2022/01/08 04:34:43;;;;;;;1.70;1.30;;;2.30;93.10;;;;;;5042196;28;20555;-81
2022/01/08 04:37:09;;;;;;;1.20;0.90;;;2.30;93.10;;;;;;5039312;28;20067;-81
2022/01/08 04:39:34;;;;;;;1.65;1.15;;;2.20;93.00;;;;;;5025986;28;20131;-81
2022/01/08 04:42:00;;;;;;;1.58;1.17;;;2.20;93.10;;;;;;5038766;28;20040;-80
2022/01/08 04:44:25;;;;;;;1.20;1.00;;;2.20;93.10;;;;;;5036073;28;20029;-82
2022/01/08 04:46:51;;;;;;;1.60;1.30;;;2.20;93.10;;;;;;5045493;28;20083;-81
2022/01/08 04:49:16;;;;;;;1.13;1.02;;;2.30;93.10;;;;;;5039030;28;20082;-82
2022/01/08 04:51:42;;;;;;;1.30;1.20;;;2.20;93.10;;;;;;5029612;28;20045;-82
2022/01/08 04:54:07;;;;;;;1.45;1.15;;;2.20;93.10;;;;;;5043937;28;20140;-82
2022/01/08 04:56:33;;;;;;;1.58;1.33;;;2.20;93.10;;;;;;5019074;28;20083;-82
2022/01/08 04:58:59;;;;;;;1.88;1.20;;;2.20;93.10;;;;;;5039741;28;20134;-81
2022/01/08 05:01:24;;;;;;;1.10;1.00;;;2.20;93.10;;;;;;5025350;28;20942;-81
2022/01/08 05:03:50;;;;;;;1.10;0.93;;;2.20;93.10;;;;;;5030051;28;20033;-81
2022/01/08 05:06:16;;;;;;;1.73;0.95;;;2.20;93.10;;;;;;5013483;28;20053;-82
2022/01/08 05:08:41;;;;;;;1.13;0.98;;;2.20;93.10;;;;;;5022674;28;20044;-82
2022/01/08 05:11:07;;;;;;;1.10;1.00;;;2.20;93.10;;;;;;5020439;28;20041;-82
2022/01/08 05:13:32;;;;;;;1.52;1.00;;;2.20;93.10;;;;;;5021868;28;20056;-82
2022/01/08 05:15:59;;;;;;;1.30;1.08;;;2.20;93.10;;;;;;5029029;28;20038;-82
2022/01/08 05:18:25;;;;;;;1.10;1.00;;;2.20;93.20;;;;;;5020607;28;20030;-82
2022/01/08 05:20:57;;;;;;;1.48;1.35;;;2.20;93.10;;;;;;5029491;28;20040;-82
2022/01/08 05:23:23;;;;;;;0.80;0.70;;;2.20;93.10;;;;;;5028215;28;20047;-81
2022/01/08 05:25:48;;;;;;;1.13;1.00;;;2.20;93.10;;;;;;5024247;28;20547;-81
2022/01/08 05:28:14;;;;;;;1.17;1.00;;;2.20;93.20;;;;;;5023693;28;20034;-82
2022/01/08 05:30:40;;;;;;;1.35;1.25;;;2.20;93.20;;;;;;5003732;28;20037;-82
2022/01/08 05:33:05;;;;;;;2.08;1.20;;;2.20;93.20;;;;;;5022818;28;20029;-81
2022/01/08 05:35:31;;;;;;;1.27;1.10;;;2.20;93.20;;;;;;5018024;28;20041;-82
2022/01/08 05:37:56;;;;;;;1.13;1.10;;;2.20;93.20;;;;;;5045820;28;20033;-82
2022/01/08 05:40:22;;;;;;;0.88;0.88;;;2.20;93.20;;;;;;5023097;28;20451;-82
2022/01/08 05:42:48;;;;;;;1.30;1.20;;;2.20;93.20;;;;;;5016744;28;20063;-81
2022/01/08 05:45:13;;;;;;;1.52;1.42;;;2.20;93.20;;;;;;5008349;28;20037;-82
2022/01/08 05:47:39;;;;;;;1.58;1.48;;;2.10;93.20;;;;;;5007279;28;20728;-82
2022/01/08 05:50:05;;;;;;;1.85;1.55;;;2.10;93.20;;;;;;4993134;28;20166;-83
2022/01/08 05:52:30;;;;;;;1.52;1.40;;;2.10;93.20;;;;;;4995060;28;20990;-82
2022/01/08 05:54:56;;;;;;;1.80;1.70;;;2.20;93.20;;;;;;5004687;28;20033;-82
2022/01/08 05:57:21;;;;;;;1.73;1.55;;;2.20;93.20;;;;;;5018229;28;20082;-83
2022/01/08 05:59:47;;;;;;;2.72;2.30;;;2.20;93.20;;;;;;5017566;28;20033;-82
2022/01/08 06:02:13;;;;;;;2.35;2.15;;;2.20;93.20;;;;;;5004068;28;20507;-83
2022/01/08 06:04:38;;;;;;;2.85;2.63;;;2.20;93.20;;;;;;5010927;28;20122;-82
2022/01/08 06:07:04;;;;;;;2.33;2.08;;;2.20;93.20;;;;;;5045691;28;20041;-83
2022/01/08 06:09:30;;;;;;;2.10;1.90;;;2.20;93.20;;;;;;5006254;28;20047;-83
2022/01/08 06:11:55;;;;;;;1.80;1.70;;;2.20;93.20;;;;;;5005673;28;20455;-83
2022/01/08 06:14:21;;;;;;;1.10;1.00;;;2.10;93.20;;;;;;5009799;28;20037;-82
2022/01/08 06:16:48;;;;;;;0.80;0.80;;;2.20;93.20;;;;;;5010870;28;20843;-84
2022/01/08 06:19:13;;;;;;;1.10;1.00;;;2.20;93.30;;;;;;5014793;28;20040;-82
2022/01/08 06:21:39;;;;;;;1.25;0.90;;;2.10;93.20;;;;;;5033763;28;20037;-82
2022/01/08 06:24:05;;;;;;;1.00;0.90;;;2.20;93.30;;;;;;5005598;28;20034;-82
2022/01/08 06:26:31;;;;;;;0.75;0.70;;;2.20;93.30;;;;;;5019302;28;20029;-82
2022/01/08 06:28:57;;;;;;;1.15;1.05;;;2.10;93.20;;;;;;5014438;28;20029;-82
2022/01/08 06:31:23;;;;;;;1.45;1.35;;;2.10;93.20;;;;;;4996643;28;20136;-82
2022/01/08 06:33:48;;;;;;;0.57;0.50;;;2.10;93.20;;;;;;5006795;28;20099;-83
2022/01/08 06:36:17;;;;;;;0.85;0.73;;;2.20;93.30;;;;;;4994633;28;20044;-82
2022/01/08 06:38:43;;;;;;;0.85;0.85;;;2.10;93.20;;;;;;5023716;28;20034;-82
2022/01/08 06:41:08;;;;;;;0.55;0.55;;;2.10;93.30;;;;;;5021416;28;20124;-83
2022/01/08 06:43:34;;;;;;;0.55;0.47;;;2.10;93.20;;;;;;4998255;28;20511;-83
2022/01/08 06:45:59;;;;;;;0.57;0.52;;;2.20;93.30;;;;;;5015161;28;20045;-83
2022/01/08 06:48:25;;;;;;;0.60;0.40;;;2.10;93.30;;;;;;5020207;28;20033;-82
2022/01/08 06:50:51;;;;;;;1.27;0.90;;;2.10;93.30;;;;;;5005037;28;20044;-83
2022/01/08 06:53:16;;;;;;;6.05;2.05;;;2.10;93.30;;;;;;4985791;28;20064;-83
2022/01/08 06:55:42;;;;;;;3.20;1.70;;;2.10;93.30;;;;;;5024854;28;20041;-83
2022/01/08 06:58:07;;;;;;;9.13;5.00;;;2.10;93.30;;;;;;4999045;28;20436;-81
2022/01/08 07:00:33;;;;;;;2.85;2.00;;;2.10;93.30;;;;;;5009487;28;20056;-82
2022/01/08 07:02:59;;;;;;;3.53;1.77;;;2.20;93.30;;;;;;5019956;28;20040;-83
2022/01/08 07:05:27;;;;;;;1.73;1.30;;;2.10;93.30;;;;;;5018831;28;20037;-83
2022/01/08 07:07:53;;;;;;;2.17;1.02;;;2.10;93.30;;;;;;5007312;28;20033;-82
2022/01/08 07:10:19;;;;;;;0.85;0.77;;;2.10;93.30;;;;;;5020672;28;20106;-82
2022/01/08 07:12:44;;;;;;;1.15;0.90;;;2.20;93.70;;;;;;5005899;28;20033;-83
2022/01/08 07:15:10;;;;;;;1.20;0.80;;;2.10;93.30;;;;;;5022646;28;20032;-83
2022/01/08 07:17:36;;;;;;;1.17;0.90;;;2.20;93.30;;;;;;5018744;28;20041;-84
2022/01/08 07:20:01;;;;;;;3.80;1.70;;;2.10;93.30;;;;;;4979926;28;20056;-83
2022/01/08 07:22:28;;;;;;;4.32;1.38;;;2.20;93.30;;;;;;4995045;28;20396;-83
2022/01/08 07:24:53;;;;;;;1.50;1.00;;;2.20;93.30;;;;;;5000104;28;20077;-83
2022/01/08 07:27:19;;;;;;;1.67;0.73;;;2.20;93.30;;;;;;4987723;28;20462;-83
2022/01/08 07:29:44;;;;;;;1.02;0.70;;;2.20;93.30;;;;;;5007703;28;20029;-82
2022/01/08 07:32:10;;;;;;;0.50;0.50;;;2.20;93.30;;;;;;5033705;28;20035;-83
2022/01/08 07:34:36;;;;;;;1.52;0.90;;;2.20;93.30;;;;;;4999952;28;20622;-83
2022/01/08 07:37:01;;;;;;;2.55;0.88;;;2.20;93.30;;;;;;5009149;28;20033;-83
2022/01/08 07:39:27;;;;;;;2.88;1.70;;;2.20;93.30;;;;;;5017981;28;20670;-82
2022/01/08 07:41:52;;;;;;;1.52;1.10;;;2.20;93.30;;;;;;4999371;28;20060;-81
2022/01/08 07:44:18;;;;;;;1.67;1.00;;;2.20;93.30;;;;;;5011687;28;20127;-83
2022/01/08 07:46:44;;;;;;;1.23;0.80;;;2.20;93.30;;;;;;5004991;28;20058;-82
2022/01/08 07:49:09;;;;;;;3.33;1.10;;;2.20;93.30;;;;;;5004753;28;20033;-81
2022/01/08 07:51:35;;;;;;;0.93;0.70;;;2.20;93.30;;;;;;5008072;28;20032;-82
2022/01/08 07:54:00;;;;;;;1.60;1.50;;;2.20;93.30;;;;;;4988486;28;20033;-82
2022/01/08 07:56:28;;;;;;;2.13;1.70;;;2.20;93.30;;;;;;5004348;28;20036;-82
2022/01/08 07:58:54;;;;;;;3.72;1.83;;;2.20;93.30;;;;;;5008638;28;20040;-83
2022/01/08 08:01:21;;;;;;;2.08;1.85;;;2.20;93.30;;;;;;4994624;28;20029;-83
2022/01/08 08:03:48;;;;;;;3.03;2.75;;;2.20;93.30;;;;;;5008982;28;20036;-82
2022/01/08 08:06:13;;;;;;;3.67;2.33;;;2.20;93.30;;;;;;5014034;28;20755;-83
2022/01/08 08:08:39;;;;;;;2.35;1.60;;;2.20;93.30;;;;;;5000952;28;20045;-83
2022/01/08 08:11:04;;;;;;;1.90;1.75;;;2.30;93.30;;;;;;5001415;28;20125;-84
2022/01/08 08:13:30;;;;;;;2.42;1.80;;;2.20;93.30;;;;;;4997585;28;20040;-83
2022/01/08 08:15:56;;;;;;;14.93;6.35;;;2.30;93.30;;;;;;5011840;28;20061;-82
2022/01/08 08:18:21;;;;;;;29.00;12.60;;;2.30;93.30;;;;;;5000354;28;20565;-82
2022/01/08 08:20:47;;;;;;;24.80;10.23;;;2.20;93.30;;;;;;5040732;28;21496;-82
2022/01/08 08:23:12;;;;;;;11.68;5.90;;;2.20;93.20;;;;;;5014166;28;20404;-82
2022/01/08 08:25:38;;;;;;;5.97;3.60;;;2.20;93.20;;;;;;5004927;28;20049;-82
2022/01/08 08:28:04;;;;;;;2.05;1.65;;;2.20;93.20;;;;;;5024851;28;20143;-82
2022/01/08 08:30:30;;;;;;;4.90;2.92;;;2.20;93.20;;;;;;5007228;28;20444;-82
2022/01/08 08:32:56;;;;;;;2.72;1.67;;;2.20;93.30;;;;;;5010470;28;20072;-82
2022/01/08 08:35:21;;;;;;;1.23;1.13;;;2.30;93.30;;;;;;5003799;28;20029;-81
2022/01/08 08:37:47;;;;;;;4.75;2.28;;;2.20;93.30;;;;;;4997034;28;20527;-82
2022/01/08 08:40:13;;;;;;;2.30;1.60;;;2.30;93.30;;;;;;5023722;28;20061;-83
2022/01/08 08:42:39;;;;;;;0.85;0.85;;;2.30;93.30;;;;;;5016213;28;20120;-83
2022/01/08 08:45:05;;;;;;;1.13;0.95;;;2.30;93.30;;;;;;5018320;28;20649;-83
2022/01/08 08:47:31;;;;;;;1.38;1.27;;;2.30;93.30;;;;;;5012239;28;20034;-82
2022/01/08 08:49:58;;;;;;;2.42;1.30;;;2.30;93.30;;;;;;5020249;28;20042;-83
2022/01/08 08:52:23;;;;;;;2.35;1.60;;;2.30;93.30;;;;;;5035497;28;20048;-84
2022/01/08 08:54:49;;;;;;;4.65;1.58;;;2.30;93.30;;;;;;5000141;28;20029;-83
2022/01/08 08:57:15;;;;;;;3.70;1.70;;;2.40;93.30;;;;;;5019530;28;20033;-82
2022/01/08 08:59:40;;;;;;;3.35;2.40;;;2.40;93.30;;;;;;5006572;28;20384;-82
2022/01/08 09:02:06;;;;;;;2.92;1.85;;;2.40;93.30;;;;;;4996552;28;20124;-82
2022/01/08 09:04:32;;;;;;;2.00;1.80;;;2.40;93.30;;;;;;4999435;28;20492;-83
2022/01/08 09:06:58;;;;;;;3.20;1.70;;;2.40;93.30;;;;;;5006947;28;20119;-82
2022/01/08 09:09:24;;;;;;;3.67;2.03;;;2.50;93.30;;;;;;4990663;28;20407;-83
2022/01/08 09:11:50;;;;;;;2.47;1.85;;;2.50;93.30;;;;;;4997802;28;20044;-83
2022/01/08 09:14:15;;;;;;;4.22;2.75;;;2.50;93.20;;;;;;4984787;28;20037;-83
2022/01/08 09:16:47;;;;;;;4.63;2.72;;;2.50;93.20;;;;;;5002301;28;20692;-83
2022/01/08 09:19:13;;;;;;;3.53;2.10;;;2.50;93.20;;;;;;5010359;28;20064;-83
2022/01/08 09:21:38;;;;;;;5.88;3.45;;;2.60;93.20;;;;;;5027178;28;20106;-83
2022/01/08 09:24:04;;;;;;;5.95;3.08;;;2.60;93.20;;;;;;5020871;28;20052;-83
2022/01/08 09:26:30;;;;;;;3.95;2.20;;;2.60;93.20;;;;;;5021267;28;20038;-85
2022/01/08 09:28:55;;;;;;;3.17;2.50;;;2.60;93.20;;;;;;5002992;28;20496;-84
2022/01/08 09:31:21;;;;;;;5.47;3.05;;;2.60;93.10;;;;;;5004944;28;20523;-83
2022/01/08 09:33:46;;;;;;;5.72;3.40;;;2.60;93.10;;;;;;5008492;28;20612;-82
2022/01/08 09:36:12;;;;;;;14.48;7.65;;;2.60;93.10;;;;;;5044098;28;20041;-83
2022/01/08 09:38:37;;;;;;;8.82;4.60;;;2.60;93.10;;;;;;5020084;28;20045;-83
2022/01/08 09:41:03;;;;;;;7.00;3.22;;;2.50;93.10;;;;;;5021985;28;20044;-82
2022/01/08 09:43:29;;;;;;;6.03;4.65;;;2.60;93.10;;;;;;5023166;28;20037;-85
2022/01/08 09:45:54;;;;;;;5.93;4.15;;;2.60;93.10;;;;;;5021897;28;20040;-83
2022/01/08 09:48:20;;;;;;;6.18;4.07;;;2.50;93.20;;;;;;5014315;28;20496;-84
2022/01/08 09:50:45;;;;;;;5.45;3.10;;;2.60;93.10;;;;;;5036308;28;20044;-83
2022/01/08 09:53:11;;;;;;;4.53;2.92;;;2.60;93.10;;;;;;5018353;28;20025;-83
2022/01/08 09:55:36;;;;;;;3.47;2.17;;;2.60;93.20;;;;;;5020487;28;20029;-83
2022/01/08 09:58:02;;;;;;;4.50;2.60;;;2.70;93.20;;;;;;4999647;28;20046;-82
2022/01/08 10:00:30;;;;;;;3.22;2.20;;;2.80;93.20;;;;;;5009938;28;20056;-84
2022/01/08 10:03:19;;;;;;;4.38;2.67;;;2.90;93.30;;;;;;5027258;28;20072;-84
2022/01/08 10:05:55;;;;;;;2.80;1.98;;;3.00;93.30;;;;;;5020611;28;20102;-83
2022/01/08 10:08:32;;;;;;;2.20;2.00;;;3.20;93.30;;;;;;5018229;28;20072;-82
2022/01/08 10:10:59;;;;;;;2.47;1.98;;;3.30;93.20;;;;;;5000530;28;20047;-83
2022/01/08 10:13:27;;;;;;;3.67;2.20;;;3.40;93.20;;;;;;4996063;28;20036;-83
2022/01/08 10:18:39;;;;;;;3.58;2.90;;;3.60;93.10;;;;;;5027863;28;20043;-84
2022/01/08 10:21:22;;;;;;;7.15;3.58;;;3.80;93.10;;;;;;5005876;28;20034;-83
2022/01/08 10:23:58;;;;;;;3.88;2.60;;;3.90;93.00;;;;;;5013579;28;20033;-83
2022/01/08 10:26:31;;;;;;;3.10;2.80;;;3.90;92.90;;;;;;5034457;28;20033;-83
2022/01/08 10:29:20;;;;;;;4.78;2.67;;;3.90;92.80;;;;;;5019571;28;20057;-83
2022/01/08 10:31:51;;;;;;;6.70;3.33;;;3.90;92.70;;;;;;5009896;28;20056;-83
2022/01/08 10:34:23;;;;;;;4.88;3.13;;;3.90;92.80;;;;;;5019978;28;20037;-83
2022/01/08 10:36:55;;;;;;;7.63;4.18;;;4.10;92.90;;;;;;5012859;28;20035;-83
2022/01/08 10:39:28;;;;;;;8.63;4.40;;;4.10;92.80;;;;;;5028467;28;20030;-83
2022/01/08 10:41:55;;;;;;;18.30;9.70;;;4.20;92.70;;;;;;5020580;28;20130;-83
2022/01/08 10:44:23;;;;;;;12.18;7.20;;;4.20;93.00;;;;;;5018173;28;20048;-84
2022/01/08 10:46:51;;;;;;;9.52;6.15;;;4.20;92.50;;;;;;5035511;28;20135;-84
2022/01/08 10:49:17;;;;;;;13.63;8.05;;;4.20;92.50;;;;;;5024942;28;20037;-83
2022/01/08 10:51:43;;;;;;;6.28;4.22;;;4.10;92.40;;;;;;5008588;28;20049;-84
2022/01/08 10:54:12;;;;;;;6.53;4.88;;;4.10;92.40;;;;;;5017906;28;20117;-83
2022/01/08 10:56:45;;;;;;;5.22;4.15;;;4.10;92.40;;;;;;5023987;28;20034;-83
2022/01/08 10:59:18;;;;;;;5.78;3.85;;;4.10;92.30;;;;;;5019627;28;20089;-83
2022/01/08 11:02:18;;;;;;;6.78;3.17;;;4.00;92.30;;;;;;5001749;28;20033;-82
2022/01/08 11:04:46;;;;;;;4.45;2.83;;;4.00;92.30;;;;;;5021596;28;20414;-82
2022/01/08 11:07:23;;;;;;;7.70;4.40;;;4.00;92.30;;;;;;5018448;28;20045;-82
2022/01/08 11:09:50;;;;;;;4.47;3.13;;;4.00;92.20;;;;;;5023138;28;20037;-82
2022/01/08 11:12:18;;;;;;;7.38;3.42;;;4.00;92.30;;;;;;5040566;28;20028;-82
2022/01/08 11:17:32;;;;;;;5.80;3.33;;;3.90;92.30;;;;;;5033514;28;20029;-83
2022/01/08 11:20:25;;;;;;;9.00;5.03;;;3.90;92.30;;;;;;5023479;28;20432;-82
2022/01/08 11:22:52;;;;;;;8.13;5.90;;;3.90;92.30;;;;;;5014293;28;20040;-83
2022/01/08 11:25:22;;;;;;;9.40;5.35;;;3.90;92.30;;;;;;5036904;28;20040;-82
2022/01/08 11:28:01;;;;;;;15.90;9.68;;;3.90;92.30;;;;;;5016492;28;20040;-82
2022/01/08 11:30:47;;;;;;;14.00;8.20;;;3.90;92.20;;;;;;5023253;28;20033;-84
2022/01/08 11:33:20;;;;;;;9.05;4.05;;;3.90;92.20;;;;;;5011390;28;20029;-83
2022/01/08 11:35:47;;;;;;;6.63;3.72;;;3.90;92.20;;;;;;5010177;28;20051;-83
2022/01/08 11:38:14;;;;;;;11.93;6.53;;;3.90;92.20;;;;;;4996624;28;21342;-82
2022/01/08 11:40:41;;;;;;;8.10;5.28;;;4.00;92.20;;;;;;5042823;28;20033;-82
2022/01/08 11:43:08;;;;;;;9.50;5.53;;;4.00;92.30;;;;;;5021026;28;20124;-83
2022/01/08 11:45:39;;;;;;;9.25;5.30;;;4.00;92.20;;;;;;5016762;28;20030;-83
2022/01/08 11:48:05;;;;;;;8.37;4.13;;;4.00;92.20;;;;;;5018606;28;20495;-82
2022/01/08 11:50:31;;;;;;;7.57;4.65;;;4.10;92.20;;;;;;5019890;28;20072;-82
2022/01/08 11:53:11;;;;;;;7.32;3.70;;;4.00;92.10;;;;;;5029922;28;20052;-82
2022/01/08 11:55:37;;;;;;;8.63;3.70;;;4.10;92.10;;;;;;5022072;28;20108;-82
2022/01/08 11:58:16;;;;;;;8.13;4.50;;;4.10;92.10;;;;;;5046047;28;20116;-82
2022/01/08 12:00:57;;;;;;;11.15;5.75;;;4.10;92.10;;;;;;5011765;28;20091;-82
2022/01/08 12:03:34;;;;;;;9.50;4.60;;;4.10;92.10;;;;;;5041049;28;20041;-83
2022/01/08 12:06:19;;;;;;;7.05;4.40;;;4.10;92.00;;;;;;5025452;28;20092;-83
2022/01/08 12:08:59;;;;;;;13.95;7.38;;;4.10;92.00;;;;;;5007114;28;20036;-83
2022/01/08 12:11:25;;;;;;;18.45;8.43;;;4.10;92.00;;;;;;5029382;28;20041;-83
2022/01/08 12:13:52;;;;;;;17.85;8.32;;;4.20;92.00;;;;;;5018034;28;20496;-82
2022/01/08 12:16:36;;;;;;;13.63;7.05;;;4.20;92.10;;;;;;5039485;28;20032;-82
2022/01/08 12:19:03;;;;;;;11.13;6.03;;;4.20;92.00;;;;;;4996283;28;20055;-83
2022/01/08 12:21:33;;;;;;;8.00;4.70;;;4.30;92.00;;;;;;5003498;28;20037;-83
2022/01/08 12:24:00;;;;;;;9.20;4.60;;;4.30;92.00;;;;;;5032193;28;20514;-82
2022/01/08 12:26:25;;;;;;;8.45;4.95;;;4.30;91.90;;;;;;5007310;28;20029;-83
2022/01/08 12:28:57;;;;;;;8.55;4.60;;;4.30;91.90;;;;;;5043481;28;20469;-83
2022/01/08 12:31:42;;;;;;;10.68;4.20;;;4.30;91.80;;;;;;5024129;28;20103;-83
2022/01/08 12:34:30;;;;;;;8.70;4.25;;;4.30;91.80;;;;;;5013372;28;20041;-83
2022/01/08 12:37:12;;;;;;;9.20;3.88;;;4.30;91.80;;;;;;5034554;28;20068;-84
2022/01/08 12:39:43;;;;;;;6.60;3.80;;;4.30;91.80;;;;;;5037491;28;20040;-83
2022/01/08 12:42:25;;;;;;;;;;;4.30;91.70;;;;;;5028000;28;20704;-83
2022/01/08 12:45:21;;;;;;;9.35;3.25;;;4.30;91.70;;;;;;5013401;28;19923;-83
2022/01/08 12:47:50;;;;;;;7.88;2.63;;;4.20;91.60;;;;;;5019000;28;20514;-83
2022/01/08 12:50:19;;;;;;;5.93;2.45;;;4.20;91.70;;;;;;5021020;28;20051;-82
2022/01/08 12:53:03;;;;;;;8.25;2.80;;;4.20;91.70;;;;;;5021598;28;20037;-83
2022/01/08 12:55:30;;;;;;;3.42;2.50;;;4.10;91.60;;;;;;5021961;28;20124;-82
2022/01/08 12:57:56;;;;;;;5.45;2.13;;;4.10;91.90;;;;;;5021495;28;20052;-83
2022/01/08 13:00:23;;;;;;;9.00;3.15;;;4.00;91.60;;;;;;5031588;28;20033;-82
2022/01/08 13:02:48;;;;;;;7.97;3.28;;;4.00;91.70;;;;;;5024862;28;20077;-83
2022/01/08 13:05:14;;;;;;;11.48;5.78;;;4.00;91.70;;;;;;5021800;28;20175;-82
2022/01/08 13:07:49;;;;;;;9.20;4.72;;;3.90;91.70;;;;;;5042370;28;20154;-81
2022/01/08 13:10:16;;;;;;;18.38;8.57;;;3.90;91.70;;;;;;5029670;28;20041;-82
2022/01/08 13:12:42;;;;;;;6.38;4.18;;;3.90;91.70;;;;;;5041159;28;20044;-82
2022/01/08 13:15:08;;;;;;;6.07;3.70;;;3.90;91.70;;;;;;5041268;28;20500;-82
2022/01/08 13:17:33;;;;;;;5.47;3.10;;;3.90;91.70;;;;;;5047372;28;20384;-82
2022/01/08 13:20:06;;;;;;;7.80;3.15;;;3.90;91.70;;;;;;5023199;28;20036;-82
2022/01/08 13:22:32;;;;;;;7.13;4.18;;;3.90;91.70;;;;;;5042809;28;20041;-83
2022/01/08 13:24:58;;;;;;;7.88;4.28;;;3.90;91.70;;;;;;5040997;28;20033;-82
2022/01/08 13:27:24;;;;;;;6.90;3.47;;;3.90;91.70;;;;;;5036554;28;21387;-82